createdAt,value
2018-10-01T00:00:39.618Z,95.60
2018-10-01T00:03:09.025Z,95.59
2018-10-01T00:05:38.153Z,95.70
2018-10-01T00:08:07.438Z,95.40
2018-10-01T00:10:36.682Z,95.46
2018-10-01T00:13:06.122Z,95.68
2018-10-01T00:15:35.249Z,95.44
2018-10-01T00:18:04.452Z,95.62
2018-10-01T00:20:39.009Z,95.73
2018-10-01T00:23:08.301Z,95.83
2018-10-01T00:25:37.461Z,95.42
2018-10-01T00:28:06.670Z,95.60
2018-10-01T00:30:35.826Z,95.62
2018-10-01T00:33:04.990Z,95.62
2018-10-01T00:35:34.397Z,96.05
2018-10-01T00:38:03.549Z,96.27
2018-10-01T00:40:32.754Z,96.39
2018-10-01T00:43:01.898Z,96.31
2018-10-01T00:45:31.042Z,95.66
2018-10-01T00:48:00.163Z,96.16
2018-10-01T00:50:29.413Z,95.92
2018-10-01T00:52:58.576Z,95.82
2018-10-01T00:55:27.728Z,95.97
2018-10-01T00:57:56.939Z,96.10
2018-10-01T01:00:26.143Z,96.39
2018-10-01T01:02:55.407Z,96.45
2018-10-01T01:05:24.632Z,96.09
2018-10-01T01:07:53.846Z,96.38
2018-10-01T01:10:23.044Z,96.52
2018-10-01T01:12:52.554Z,96.40
2018-10-01T01:15:21.680Z,96.85
2018-10-01T01:17:50.789Z,96.46
2018-10-01T01:20:19.928Z,96.89
2018-10-01T01:22:49.066Z,96.98
2018-10-01T01:25:18.180Z,96.98
2018-10-01T01:27:47.347Z,97.20
2018-10-01T01:30:18.065Z,97.30
2018-10-01T01:32:47.211Z,97.45
2018-10-01T01:35:16.440Z,97.82
2018-10-01T01:37:45.605Z,97.40
2018-10-01T01:40:14.740Z,97.30
2018-10-01T01:42:43.908Z,97.50
2018-10-01T01:45:13.076Z,97.31
2018-10-01T01:47:42.203Z,96.87
2018-10-01T01:50:11.352Z,97.24
2018-10-01T01:52:40.464Z,97.10
2018-10-01T01:55:09.708Z,97.89
2018-10-01T01:57:38.863Z,97.99
2018-10-01T02:00:08.052Z,98.09
2018-10-01T02:02:37.207Z,98.02
2018-10-01T02:05:07.060Z,97.80
2018-10-01T02:07:36.219Z,98.38
2018-10-01T02:10:05.569Z,97.93
2018-10-01T02:12:34.720Z,98.13
2018-10-01T02:15:04.377Z,97.67
2018-10-01T02:17:33.561Z,97.82
2018-10-01T02:20:02.751Z,98.23
2018-10-01T02:22:31.888Z,97.59
2018-10-01T02:25:01.066Z,97.13
2018-10-01T02:27:30.217Z,97.91
2018-10-01T02:29:59.353Z,97.56
2018-10-01T02:32:28.487Z,97.92
2018-10-01T02:34:57.654Z,97.64
2018-10-01T02:37:26.994Z,98.17
2018-10-01T02:39:56.118Z,97.54
2018-10-01T02:42:25.284Z,97.37
2018-10-01T02:44:54.395Z,97.43
2018-10-01T02:47:23.569Z,97.22
2018-10-01T02:49:52.706Z,97.31
2018-10-01T02:52:27.171Z,97.97
2018-10-01T02:54:56.329Z,97.58
2018-10-01T02:57:25.461Z,97.46
2018-10-01T02:59:54.614Z,97.43
2018-10-01T03:02:23.748Z,97.48
2018-10-01T03:04:52.888Z,97.80
2018-10-01T03:07:22.009Z,97.77
2018-10-01T03:09:51.161Z,98.37
2018-10-01T03:12:20.339Z,98.34
2018-10-01T03:14:49.457Z,98.30
2018-10-01T03:17:22.432Z,98.12
2018-10-01T03:19:51.477Z,98.62
2018-10-01T03:22:20.604Z,98.71
2018-10-01T03:24:49.770Z,99.23
2018-10-01T03:27:18.886Z,99.29
2018-10-01T03:29:48.020Z,98.66
2018-10-01T03:32:17.346Z,99.00
2018-10-01T03:34:46.511Z,99.13
2018-10-01T03:37:15.645Z,99.40
2018-10-01T03:39:44.872Z,98.79
2018-10-01T03:42:14.047Z,99.47
2018-10-01T03:44:43.183Z,99.00
2018-10-01T03:47:12.414Z,98.92
2018-10-01T03:49:41.532Z,99.07
2018-10-01T03:52:10.780Z,98.92
2018-10-01T03:54:39.910Z,98.64
2018-10-01T03:57:09.526Z,99.38
2018-10-01T03:59:38.792Z,98.81
2018-10-01T04:02:08.462Z,99.18
2018-10-01T04:04:37.604Z,99.30
2018-10-01T04:07:07.017Z,99.57
2018-10-01T04:09:36.150Z,99.93
2018-10-01T04:12:05.322Z,99.95
2018-10-01T04:14:34.454Z,99.62
2018-10-01T04:17:03.614Z,99.09
2018-10-01T04:19:32.775Z,98.77
2018-10-01T04:22:01.896Z,99.23
2018-10-01T04:24:31.060Z,98.85
2018-10-01T04:27:00.225Z,99.29
2018-10-01T04:29:29.354Z,99.17
2018-10-01T04:31:58.514Z,99.63
2018-10-01T04:34:27.672Z,99.17
2018-10-01T04:36:56.954Z,98.82
2018-10-01T04:39:26.121Z,98.98
2018-10-01T04:41:55.289Z,98.88
2018-10-01T04:44:24.434Z,99.15
2018-10-01T04:46:53.771Z,98.60
2018-10-01T04:49:22.801Z,99.05
2018-10-01T04:51:51.931Z,99.16
2018-10-01T04:54:21.084Z,99.19
2018-10-01T04:56:50.230Z,99.11
2018-10-01T04:59:19.398Z,99.59
2018-10-01T05:01:48.541Z,99.07
2018-10-01T05:04:17.669Z,98.81
2018-10-01T05:06:46.826Z,98.51
2018-10-01T05:09:15.989Z,98.97
2018-10-01T05:11:45.121Z,99.29
2018-10-01T05:14:14.277Z,99.13
2018-10-01T05:16:50.586Z,98.99
2018-10-01T05:19:19.797Z,99.51
2018-10-01T05:21:48.960Z,99.70
2018-10-01T05:24:18.137Z,99.31
2018-10-01T05:26:47.289Z,99.60
2018-10-01T05:29:16.475Z,99.85
2018-10-01T05:31:45.760Z,99.55
2018-10-01T05:34:14.901Z,99.14
2018-10-01T05:36:44.025Z,99.62
2018-10-01T05:39:13.655Z,99.33
2018-10-01T05:41:43.076Z,99.32
2018-10-01T05:44:12.257Z,99.83
2018-10-01T05:46:41.522Z,99.15
2018-10-01T05:49:10.744Z,98.73
2018-10-01T05:51:39.883Z,98.64
2018-10-01T05:54:09.064Z,97.99
2018-10-01T05:56:39.420Z,98.08
2018-10-01T05:59:09.167Z,98.25
2018-10-01T06:01:38.346Z,97.66
2018-10-01T06:04:07.578Z,98.17
2018-10-01T06:06:36.698Z,98.07
2018-10-01T06:09:08.483Z,97.68
2018-10-01T06:11:38.220Z,97.46
2018-10-01T06:14:07.472Z,97.46
2018-10-01T06:16:36.634Z,97.08
2018-10-01T06:19:06.343Z,97.94
2018-10-01T06:21:35.525Z,97.92
2018-10-01T06:24:04.677Z,97.88
2018-10-01T06:26:33.797Z,98.05
2018-10-01T06:29:02.976Z,97.84
2018-10-01T06:31:32.292Z,97.60
2018-10-01T06:34:01.454Z,97.52
2018-10-01T06:36:30.599Z,96.21
2018-10-01T06:38:59.784Z,95.50
2018-10-01T06:41:30.510Z,95.41
2018-10-01T06:43:59.630Z,95.12
2018-10-01T06:46:28.800Z,94.60
2018-10-01T06:48:57.965Z,93.18
2018-10-01T06:51:27.160Z,92.71
2018-10-01T06:53:57.216Z,92.72
2018-10-01T06:56:26.456Z,91.61
2018-10-01T06:58:55.664Z,90.76
2018-10-01T07:01:24.841Z,88.98
2018-10-01T07:03:54.079Z,88.09
2018-10-01T07:06:23.581Z,85.62
2018-10-01T07:08:52.816Z,85.42
2018-10-01T07:11:22.145Z,86.72
2018-10-01T07:13:51.285Z,86.23
2018-10-01T07:16:20.571Z,85.11
2018-10-01T07:18:49.694Z,84.61
2018-10-01T07:21:18.913Z,83.30
2018-10-01T07:23:48.087Z,82.02
2018-10-01T07:26:17.280Z,82.62
2018-10-01T07:28:46.457Z,82.20
2018-10-01T07:31:15.634Z,83.04
2018-10-01T07:33:44.826Z,82.35
2018-10-01T07:36:13.974Z,82.11
2018-10-01T07:38:43.197Z,82.58
2018-10-01T07:41:12.317Z,81.54
2018-10-01T07:43:41.493Z,81.27
2018-10-01T07:46:10.691Z,80.98
2018-10-01T07:48:40.118Z,81.84
2018-10-01T07:51:10.364Z,80.67
2018-10-01T07:53:41.161Z,81.71
2018-10-01T07:56:10.299Z,80.28
2018-10-01T07:58:39.446Z,79.26
2018-10-01T08:01:08.645Z,78.99
2018-10-01T08:03:37.803Z,80.31
2018-10-01T08:06:07.743Z,81.20
2018-10-01T08:08:36.959Z,79.96
2018-10-01T08:11:06.685Z,77.16
2018-10-01T08:13:35.872Z,78.36
2018-10-01T08:16:05.102Z,77.82
2018-10-01T08:18:34.306Z,75.44
2018-10-01T08:21:03.642Z,75.44
2018-10-01T08:23:32.842Z,74.49
2018-10-01T08:26:02.090Z,73.30
2018-10-01T08:28:31.393Z,72.54
2018-10-01T08:31:00.652Z,72.06
2018-10-01T08:33:30.737Z,70.84
2018-10-01T08:35:59.952Z,70.90
2018-10-01T08:38:29.501Z,70.52
2018-10-01T08:40:58.629Z,70.30
2018-10-01T08:43:27.780Z,70.97
2018-10-01T08:45:57.102Z,71.86
2018-10-01T08:48:27.793Z,71.78
2018-10-01T08:51:04.695Z,73.06
2018-10-01T08:53:39.167Z,73.17
2018-10-01T08:56:08.334Z,73.20
2018-10-01T08:58:37.725Z,74.37
2018-10-01T09:01:06.955Z,73.38
2018-10-01T09:03:36.137Z,73.21
2018-10-01T09:06:05.378Z,72.83
2018-10-01T09:08:35.082Z,73.22
2018-10-01T09:11:04.238Z,71.57
2018-10-01T09:13:33.403Z,72.54
2018-10-01T09:16:02.729Z,72.29
2018-10-01T09:18:32.016Z,72.46
2018-10-01T09:21:01.138Z,69.66
2018-10-01T09:23:30.330Z,68.39
2018-10-01T09:25:59.498Z,67.52
2018-10-01T09:28:28.823Z,70.14
2018-10-01T09:30:58.014Z,70.17
2018-10-01T09:33:27.144Z,69.67
2018-10-01T09:35:56.313Z,69.83
2018-10-01T09:38:25.506Z,70.31
2018-10-01T09:40:54.683Z,71.51
2018-10-01T09:43:23.967Z,71.71
2018-10-01T09:45:53.156Z,70.94
2018-10-01T09:48:22.343Z,72.45
2018-10-01T09:50:51.485Z,71.55
2018-10-01T09:53:20.683Z,72.25
2018-10-01T09:55:49.863Z,72.58
2018-10-01T09:58:19.159Z,73.08
2018-10-01T10:00:53.552Z,73.50
2018-10-01T10:03:22.716Z,75.65
2018-10-01T10:05:51.927Z,76.25
2018-10-01T10:08:21.138Z,79.27
2018-10-01T10:10:50.228Z,79.99
2018-10-01T10:13:19.358Z,81.88
2018-10-01T10:15:48.547Z,83.35
2018-10-01T10:18:17.715Z,85.75
2018-10-01T10:20:46.920Z,88.46
2018-10-01T10:23:16.208Z,89.99
2018-10-01T10:25:45.361Z,91.78
2018-10-01T10:28:14.996Z,93.50
2018-10-01T10:30:44.105Z,94.67
2018-10-01T10:33:13.318Z,95.96
2018-10-01T10:35:42.462Z,95.73
2018-10-01T10:38:11.738Z,96.55
2018-10-01T10:40:40.830Z,96.44
2018-10-01T10:43:10.035Z,97.48
2018-10-01T10:45:39.258Z,97.36
2018-10-01T10:48:08.498Z,97.52
2018-10-01T10:50:37.711Z,98.33
2018-10-01T10:53:06.944Z,98.06
2018-10-01T10:55:36.125Z,98.36
2018-10-01T10:58:05.277Z,99.23
2018-10-01T11:00:34.450Z,99.01
2018-10-01T11:03:03.640Z,98.71
2018-10-01T11:05:32.796Z,98.96
2018-10-01T11:08:01.993Z,99.60
2018-10-01T11:10:31.255Z,98.55
2018-10-01T11:13:00.402Z,98.33
2018-10-01T11:15:29.577Z,98.66
2018-10-01T11:17:58.775Z,98.03
2018-10-01T11:20:28.002Z,97.58
2018-10-01T11:22:57.047Z,97.42
2018-10-01T11:25:26.244Z,97.55
2018-10-01T11:27:55.480Z,97.06
2018-10-01T11:30:24.576Z,97.44
2018-10-01T11:32:53.809Z,97.92
2018-10-01T11:35:23.091Z,97.71
2018-10-01T11:37:52.201Z,97.65
2018-10-01T11:40:21.803Z,97.14
2018-10-01T11:42:50.942Z,97.52
2018-10-01T11:45:20.273Z,97.25
2018-10-01T11:47:49.378Z,97.12
2018-10-01T11:50:18.511Z,97.45
2018-10-01T11:52:47.701Z,97.68
2018-10-01T11:55:16.886Z,97.64
2018-10-01T11:57:46.142Z,97.08
2018-10-01T12:00:16.977Z,97.91
2018-10-01T12:02:46.539Z,97.08
2018-10-01T12:05:15.684Z,97.08
2018-10-01T12:07:44.896Z,97.29
2018-10-01T12:10:14.214Z,97.31
2018-10-01T12:12:43.285Z,97.70
2018-10-01T12:15:12.465Z,98.25
2018-10-01T12:17:41.566Z,98.53
2018-10-01T12:20:10.710Z,98.90
2018-10-01T12:22:39.875Z,98.54
2018-10-01T12:25:09.250Z,98.90
2018-10-01T12:27:38.424Z,98.44
2018-10-01T12:30:07.638Z,98.44
2018-10-01T12:32:36.780Z,98.82
2018-10-01T12:35:06.543Z,99.00
2018-10-01T12:37:35.739Z,98.72
2018-10-01T12:40:04.962Z,98.81
2018-10-01T12:42:34.159Z,98.58
2018-10-01T12:45:03.413Z,98.09
2018-10-01T12:47:32.501Z,98.64
2018-10-01T12:50:01.697Z,98.83
2018-10-01T12:52:30.878Z,98.87
2018-10-01T12:55:00.023Z,99.92
2018-10-01T12:57:29.202Z,99.75
2018-10-01T12:59:58.368Z,99.57
2018-10-01T13:02:27.533Z,99.58
2018-10-01T13:04:56.708Z,99.54
2018-10-01T13:07:25.860Z,99.44
2018-10-01T13:09:55.020Z,99.58
2018-10-01T13:12:24.232Z,99.77
2018-10-01T13:14:53.430Z,99.77
2018-10-01T13:17:22.619Z,100.00
2018-10-01T13:19:51.825Z,100.00
2018-10-01T13:22:21.028Z,100.00
2018-10-01T13:24:51.207Z,100.00
2018-10-01T13:27:20.314Z,99.78
2018-10-01T13:29:49.514Z,99.89
2018-10-01T13:32:18.821Z,99.93
2018-10-01T13:34:47.982Z,100.00
2018-10-01T13:37:17.410Z,99.90
2018-10-01T13:39:46.594Z,99.16
2018-10-01T13:42:15.826Z,99.49
2018-10-01T13:44:44.981Z,99.67
2018-10-01T13:47:14.186Z,99.69
2018-10-01T13:49:43.398Z,99.74
2018-10-01T13:52:12.723Z,99.97
2018-10-01T13:54:41.977Z,100.00
2018-10-01T13:57:11.169Z,100.00
2018-10-01T13:59:40.618Z,100.00
2018-10-01T14:02:09.883Z,99.95
2018-10-01T14:04:40.547Z,100.00
2018-10-01T14:07:09.817Z,99.98
2018-10-01T14:09:39.094Z,100.00
2018-10-01T14:12:08.282Z,100.00
2018-10-01T14:14:37.468Z,100.00
2018-10-01T14:17:06.804Z,99.99
2018-10-01T14:19:36.136Z,99.92
2018-10-01T14:22:05.273Z,100.00
2018-10-01T14:24:34.461Z,100.00
2018-10-01T14:27:03.736Z,100.00
2018-10-01T14:29:33.311Z,99.49
2018-10-01T14:32:02.481Z,99.55
2018-10-01T14:34:31.657Z,99.96
2018-10-01T14:37:00.933Z,100.00
2018-10-01T14:39:30.150Z,99.77
2018-10-01T14:41:59.362Z,100.00
2018-10-01T14:44:30.801Z,100.00
2018-10-01T14:46:59.957Z,100.00
2018-10-01T14:49:29.247Z,100.00
2018-10-01T14:51:58.554Z,100.00
2018-10-01T14:54:28.494Z,100.00
2018-10-01T14:56:57.712Z,100.00
2018-10-01T14:59:27.310Z,100.00
2018-10-01T15:01:56.490Z,100.00
2018-10-01T15:04:25.715Z,100.00
2018-10-01T15:06:54.911Z,100.00
2018-10-01T15:09:24.082Z,100.00
2018-10-01T15:11:53.331Z,100.00
2018-10-01T15:14:22.519Z,100.00
2018-10-01T15:16:51.702Z,100.00
2018-10-01T15:19:20.873Z,100.00
2018-10-01T15:21:50.046Z,100.00
2018-10-01T15:24:19.951Z,100.00
2018-10-01T15:26:49.128Z,100.00
2018-10-01T15:29:18.312Z,100.00
2018-10-01T15:31:47.493Z,100.00
2018-10-01T15:34:16.669Z,100.00
2018-10-01T15:36:45.862Z,100.00
2018-10-01T15:39:15.000Z,100.00
2018-10-01T15:41:44.184Z,100.00
2018-10-01T15:44:13.442Z,100.00
2018-10-01T15:46:43.005Z,100.00
2018-10-01T15:49:12.177Z,100.00
2018-10-01T15:51:41.346Z,100.00
2018-10-01T15:54:10.524Z,99.83
2018-10-01T15:56:39.654Z,99.46
2018-10-01T15:59:08.843Z,98.85
2018-10-01T16:01:37.987Z,99.20
2018-10-01T16:04:07.300Z,99.57
2018-10-01T16:06:36.506Z,99.54
2018-10-01T16:09:08.562Z,99.64
2018-10-01T16:11:40.154Z,99.36
2018-10-01T16:14:09.394Z,99.43
2018-10-01T16:16:38.572Z,98.98
2018-10-01T16:19:07.890Z,98.52
2018-10-01T16:21:38.408Z,97.73
2018-10-01T16:24:07.570Z,97.78
2018-10-01T16:26:36.745Z,97.30
2018-10-01T16:29:06.074Z,95.77
2018-10-01T16:31:35.341Z,95.18
2018-10-01T16:34:04.472Z,95.95
2018-10-01T16:36:33.665Z,96.44
2018-10-01T16:39:02.827Z,96.14
2018-10-01T16:41:32.522Z,96.23
2018-10-01T16:44:01.702Z,96.77
2018-10-01T16:46:30.885Z,97.43
2018-10-01T16:49:00.201Z,97.80
2018-10-01T16:51:31.028Z,98.17
2018-10-01T16:54:00.534Z,98.28
2018-10-01T16:56:29.714Z,99.06
2018-10-01T16:58:58.881Z,99.42
2018-10-01T17:01:28.037Z,99.02
2018-10-01T17:03:57.233Z,99.33
2018-10-01T17:06:32.649Z,98.99
2018-10-01T17:09:02.397Z,97.97
2018-10-01T17:11:31.557Z,98.40
2018-10-01T17:14:00.683Z,99.07
2018-10-01T17:16:29.895Z,99.40
2018-10-01T17:18:59.073Z,100.00
2018-10-01T17:21:28.265Z,99.93
2018-10-01T17:23:57.462Z,100.00
2018-10-01T17:26:26.728Z,100.00
2018-10-01T17:28:55.921Z,100.00
2018-10-01T17:31:25.108Z,100.00
2018-10-01T17:33:54.303Z,100.00
2018-10-01T17:36:23.503Z,100.00
2018-10-01T17:38:52.948Z,100.00
2018-10-01T17:41:22.112Z,100.00
2018-10-01T17:43:51.276Z,100.00
2018-10-01T17:46:20.497Z,100.00
2018-10-01T17:48:49.634Z,100.00
2018-10-01T17:51:18.974Z,100.00
2018-10-01T17:53:48.205Z,99.81
2018-10-01T17:56:17.397Z,99.97
2018-10-01T17:58:46.555Z,99.48
2018-10-01T18:01:15.791Z,98.67
2018-10-01T18:03:45.014Z,98.90
2018-10-01T18:06:14.262Z,98.69
2018-10-01T18:08:44.159Z,98.38
2018-10-01T18:11:13.365Z,98.74
2018-10-01T18:13:42.498Z,98.42
2018-10-01T18:16:11.708Z,98.53
2018-10-01T18:18:40.863Z,99.00
2018-10-01T18:21:10.103Z,99.37
2018-10-01T18:23:39.287Z,99.19
2018-10-01T18:26:08.522Z,98.85
2018-10-01T18:28:37.701Z,98.49
2018-10-01T18:31:07.396Z,99.63
2018-10-01T18:33:36.606Z,99.57
2018-10-01T18:36:06.816Z,100.00
2018-10-01T18:38:36.087Z,100.00
2018-10-01T18:41:05.279Z,100.00
2018-10-01T18:43:34.496Z,100.00
2018-10-01T18:46:03.636Z,100.00
2018-10-01T18:48:32.823Z,100.00
2018-10-01T18:51:02.001Z,100.00
2018-10-01T18:53:31.170Z,100.00
2018-10-01T18:56:00.380Z,100.00
2018-10-01T18:58:29.504Z,100.00
2018-10-01T19:00:58.716Z,100.00
2018-10-01T19:03:27.986Z,100.00
2018-10-01T19:05:57.121Z,100.00
2018-10-01T19:08:26.266Z,100.00
2018-10-01T19:10:55.449Z,100.00
2018-10-01T19:13:24.740Z,100.00
2018-10-01T19:15:53.908Z,100.00
2018-10-01T19:18:23.068Z,100.00
2018-10-01T19:20:52.228Z,100.00
2018-10-01T19:23:21.333Z,100.00
2018-10-01T19:25:50.552Z,100.00
2018-10-01T19:28:19.664Z,100.00
2018-10-01T19:30:48.809Z,100.00
2018-10-01T19:33:18.139Z,100.00
2018-10-01T19:35:47.360Z,100.00
2018-10-01T19:38:16.388Z,100.00
2018-10-01T19:40:45.555Z,100.00
2018-10-01T19:43:14.666Z,100.00
2018-10-01T19:45:43.982Z,100.00
2018-10-01T19:48:13.116Z,100.00
2018-10-01T19:50:42.290Z,100.00
2018-10-01T19:53:11.465Z,100.00
2018-10-01T19:55:40.581Z,100.00
2018-10-01T19:58:09.714Z,100.00
2018-10-01T20:00:38.892Z,100.00
2018-10-01T20:03:08.216Z,100.00
2018-10-01T20:05:37.363Z,100.00
2018-10-01T20:08:06.561Z,100.00
2018-10-01T20:10:35.677Z,100.00
2018-10-01T20:13:05.305Z,100.00
2018-10-01T20:15:34.494Z,100.00
2018-10-01T20:18:05.359Z,100.00
2018-10-01T20:20:34.484Z,100.00
2018-10-01T20:23:03.671Z,100.00
2018-10-01T20:25:34.013Z,100.00
2018-10-01T20:28:03.360Z,100.00
2018-10-01T20:30:32.617Z,100.00
2018-10-01T20:33:01.718Z,100.00
2018-10-01T20:35:30.967Z,100.00
2018-10-01T20:38:00.268Z,100.00
2018-10-01T20:40:29.330Z,100.00
2018-10-01T20:42:58.522Z,100.00
2018-10-01T20:45:27.655Z,100.00
2018-10-01T20:47:56.858Z,100.00
2018-10-01T20:50:25.961Z,100.00
2018-10-01T20:52:55.160Z,100.00
2018-10-01T20:55:24.256Z,100.00
2018-10-01T20:57:53.388Z,100.00
2018-10-01T21:00:22.593Z,100.00
2018-10-01T21:02:51.737Z,100.00
2018-10-01T21:05:20.890Z,100.00
2018-10-01T21:07:50.056Z,100.00
2018-10-01T21:10:20.113Z,100.00
2018-10-01T21:12:49.229Z,100.00
2018-10-01T21:15:18.378Z,100.00
2018-10-01T21:17:47.568Z,100.00
2018-10-01T21:20:16.729Z,100.00
2018-10-01T21:22:46.473Z,100.00
2018-10-01T21:25:15.681Z,100.00
2018-10-01T21:27:44.817Z,100.00
2018-10-01T21:30:13.970Z,100.00
2018-10-01T21:32:43.134Z,100.00
2018-10-01T21:35:12.271Z,100.00
2018-10-01T21:37:41.727Z,100.00
2018-10-01T21:40:13.185Z,100.00
2018-10-01T21:42:42.645Z,100.00
2018-10-01T21:45:12.981Z,100.00
2018-10-01T21:47:42.157Z,100.00
2018-10-01T21:50:11.314Z,100.00
2018-10-01T21:52:40.482Z,100.00
2018-10-01T21:55:09.741Z,100.00
2018-10-01T21:57:38.903Z,100.00
2018-10-01T22:00:11.120Z,100.00
2018-10-01T22:02:40.300Z,100.00
2018-10-01T22:05:09.818Z,100.00
2018-10-01T22:07:39.581Z,100.00
2018-10-01T22:10:08.805Z,100.00
2018-10-01T22:12:38.026Z,100.00
2018-10-01T22:15:07.461Z,100.00
2018-10-01T22:17:36.730Z,100.00
2018-10-01T22:20:06.063Z,100.00
2018-10-01T22:22:35.188Z,100.00
2018-10-01T22:25:04.379Z,100.00
2018-10-01T22:27:33.574Z,100.00
2018-10-01T22:30:02.722Z,100.00
2018-10-01T22:32:31.927Z,100.00
2018-10-01T22:35:01.093Z,100.00
2018-10-01T22:37:30.221Z,100.00
2018-10-01T22:39:59.390Z,100.00
2018-10-01T22:42:28.526Z,100.00
2018-10-01T22:44:57.658Z,100.00
2018-10-01T22:47:26.805Z,100.00
2018-10-01T22:49:55.967Z,100.00
2018-10-01T22:52:25.117Z,100.00
2018-10-01T22:54:54.253Z,100.00
2018-10-01T22:57:23.405Z,100.00
2018-10-01T22:59:52.578Z,100.00
2018-10-01T23:02:21.749Z,100.00
2018-10-01T23:04:50.927Z,100.00
2018-10-01T23:07:20.059Z,100.00
2018-10-01T23:09:49.224Z,100.00
2018-10-01T23:12:18.394Z,100.00
2018-10-01T23:14:47.511Z,100.00
2018-10-01T23:17:16.657Z,100.00
2018-10-01T23:19:45.858Z,100.00
2018-10-01T23:22:15.066Z,100.00
2018-10-01T23:24:44.265Z,100.00
2018-10-01T23:27:13.391Z,100.00
2018-10-01T23:29:42.516Z,100.00
2018-10-01T23:32:11.995Z,100.00
2018-10-01T23:34:41.122Z,100.00
2018-10-01T23:37:10.717Z,100.00
2018-10-01T23:39:39.888Z,100.00
2018-10-01T23:42:09.069Z,100.00
2018-10-01T23:44:38.195Z,100.00
2018-10-01T23:47:07.479Z,100.00
2018-10-01T23:49:36.608Z,100.00
2018-10-01T23:52:05.836Z,100.00
2018-10-01T23:54:34.960Z,100.00
2018-10-01T23:57:04.117Z,100.00
2018-10-01T23:59:33.268Z,100.00
